Time;durP1;ratioP1;P1;durP2;ratioP2;P2;SDS_P1;SDS_P2;PMS_P1;PMS_P2;Temp;Humidity;BMP_temperature;BMP_pressure;BME280_temperature;BME280_humidity;BME280_pressure;Samples;Min_cycle;Max_cycle;Signal;HPM_P1;HPM_P2
2022/10/23 00:01:32;;;;;;;22.00;12.10;;;15.90;99.90;;;;;;5053820;28;20229;-71
2022/10/23 00:04:00;;;;;;;18.37;13.37;;;16.00;99.90;;;;;;5053888;28;20199;-71
2022/10/23 00:06:27;;;;;;;12.87;7.60;;;16.10;99.90;;;;;;5054036;28;20177;-72
2022/10/23 00:08:53;;;;;;;7.30;4.70;;;16.10;99.90;;;;;;5053320;28;20680;-71
2022/10/23 00:11:21;;;;;;;10.60;5.77;;;16.20;99.90;;;;;;5053484;28;20177;-71
2022/10/23 00:13:47;;;;;;;11.10;5.20;;;16.20;99.90;;;;;;5053666;28;20255;-71
2022/10/23 00:16:13;;;;;;;10.17;6.70;;;16.10;99.90;;;;;;5053830;28;20311;-71
2022/10/23 00:18:40;;;;;;;21.10;11.37;;;16.00;99.90;;;;;;5053775;28;20165;-72
2022/10/23 00:21:08;;;;;;;10.83;6.47;;;16.10;99.90;;;;;;5053420;28;20269;-71
2022/10/23 00:23:34;;;;;;;13.17;5.93;;;16.00;99.90;;;;;;5053002;28;20184;-72
2022/10/23 00:25:59;;;;;;;13.63;7.87;;;16.00;99.90;;;;;;5035280;28;20197;-71
2022/10/23 00:28:25;;;;;;;12.37;6.77;;;16.00;99.90;;;;;;5053537;28;20212;-72
2022/10/23 00:30:51;;;;;;;12.60;8.63;;;15.90;99.90;;;;;;5053388;28;20201;-72
2022/10/23 00:33:17;;;;;;;15.20;7.73;;;15.90;99.90;;;;;;5053231;28;20203;-72
2022/10/23 00:35:43;;;;;;;14.63;8.63;;;15.90;99.90;;;;;;5053150;28;20180;-71
2022/10/23 00:38:09;;;;;;;8.73;5.13;;;16.00;99.90;;;;;;5036014;28;20193;-72
2022/10/23 00:40:36;;;;;;;7.33;5.90;;;16.10;99.90;;;;;;5053013;28;20169;-72
2022/10/23 00:43:02;;;;;;;6.07;3.37;;;16.20;99.90;;;;;;5053442;28;20177;-71
2022/10/23 00:45:32;;;;;;;5.03;2.27;;;16.20;99.90;;;;;;5053312;28;20227;-71
2022/10/23 00:47:59;;;;;;;3.60;2.40;;;16.20;99.90;;;;;;5053288;28;20614;-71
2022/10/23 00:50:27;;;;;;;3.83;2.30;;;16.30;99.90;;;;;;5052902;28;20172;-72
2022/10/23 00:52:54;;;;;;;6.03;2.60;;;16.30;99.90;;;;;;5052892;28;20177;-72
2022/10/23 00:55:22;;;;;;;5.53;2.20;;;16.30;99.90;;;;;;5053315;28;20637;-72
2022/10/23 00:57:49;;;;;;;6.77;2.40;;;16.30;99.90;;;;;;5053089;28;20196;-72
2022/10/23 01:00:44;;;;;;;7.77;3.00;;;16.30;99.90;;;;;;5053000;28;20165;-71
2022/10/23 01:03:09;;;;;;;5.70;2.40;;;16.30;99.90;;;;;;5025135;28;20196;-72
2022/10/23 01:05:45;;;;;;;8.80;3.00;;;16.30;99.90;;;;;;5032719;28;20265;-72
2022/10/23 01:08:23;;;;;;;5.10;2.70;;;16.30;99.90;;;;;;5033401;28;20170;-71
2022/10/23 01:11:00;;;;;;;4.37;2.60;;;16.20;99.90;;;;;;5033164;28;20657;-73
2022/10/23 01:13:25;;;;;;;4.47;2.33;;;16.30;99.90;;;;;;5033060;28;20245;-71
2022/10/23 01:16:03;;;;;;;5.30;2.60;;;16.20;99.90;;;;;;5032992;28;20725;-72
2022/10/23 01:18:35;;;;;;;4.50;2.57;;;16.30;99.90;;;;;;5033108;28;20173;-72
2022/10/23 01:21:33;;;;;;;4.50;2.60;;;16.20;99.90;;;;;;5032813;28;20293;-72
2022/10/23 01:24:23;;;;;;;3.00;2.50;;;16.30;99.90;;;;;;5008725;28;20185;-71
2022/10/23 01:27:13;;;;;;;5.13;2.60;;;16.40;99.90;;;;;;5033076;28;20169;-72
2022/10/23 01:29:45;;;;;;;8.43;2.53;;;16.40;99.90;;;;;;5032948;28;20170;-72
2022/10/23 01:32:41;;;;;;;10.10;2.70;;;16.40;99.90;;;;;;5033160;28;20177;-72
2022/10/23 01:35:13;;;;;;;4.37;2.30;;;16.50;99.90;;;;;;5032487;28;20170;-72
2022/10/23 01:37:53;;;;;;;7.17;2.40;;;16.50;99.90;;;;;;5033046;28;20173;-72
2022/10/23 01:40:25;;;;;;;4.63;2.40;;;16.40;99.90;;;;;;5032832;28;20228;-71
2022/10/23 01:43:00;;;;;;;4.90;2.70;;;16.40;99.90;;;;;;5032832;28;20195;-71
2022/10/23 01:45:53;;;;;;;4.30;2.37;;;16.40;99.90;;;;;;5032880;28;20170;-72
2022/10/23 01:48:24;;;;;;;3.00;2.00;;;16.40;99.90;;;;;;5035179;28;20166;-71
2022/10/23 01:50:54;;;;;;;4.87;2.40;;;16.50;99.90;;;;;;5036731;28;20177;-72
2022/10/23 01:53:21;;;;;;;5.13;2.50;;;16.50;99.90;;;;;;5036528;28;20646;-73
2022/10/23 01:55:48;;;;;;;4.37;2.60;;;16.50;99.90;;;;;;5036461;28;20709;-72
2022/10/23 01:58:16;;;;;;;4.63;2.57;;;16.50;99.90;;;;;;5036420;28;20194;-72
2022/10/23 02:00:44;;;;;;;6.00;2.70;;;16.50;99.90;;;;;;5037977;28;20324;-72
2022/10/23 02:03:12;;;;;;;5.77;2.77;;;16.50;99.90;;;;;;5056059;28;20203;-72
2022/10/23 02:05:38;;;;;;;7.07;2.37;;;16.40;99.90;;;;;;5056351;28;20168;-71
2022/10/23 02:08:05;;;;;;;3.47;2.20;;;16.40;99.90;;;;;;5056175;28;20173;-71
2022/10/23 02:10:51;;;;;;;5.00;2.73;;;16.50;99.90;;;;;;5056020;28;20170;-71
2022/10/23 02:13:29;;;;;;;3.73;2.30;;;16.50;99.90;;;;;;5056193;28;20211;-71
2022/10/23 02:16:13;;;;;;;3.33;2.03;;;16.50;99.90;;;;;;5056029;28;20628;-71
2022/10/23 02:18:59;;;;;;;4.60;2.43;;;16.40;99.90;;;;;;5055963;28;20201;-71
2022/10/23 02:21:51;;;;;;;4.43;2.50;;;16.40;99.90;;;;;;5055835;28;20207;-71
2022/10/23 02:24:25;;;;;;;5.30;2.37;;;16.40;99.90;;;;;;5046854;28;20200;-71
2022/10/23 02:26:54;;;;;;;6.67;2.33;;;16.30;99.90;;;;;;5055748;28;20711;-71
2022/10/23 02:29:33;;;;;;;5.63;2.70;;;16.20;99.90;;;;;;5055675;28;20180;-72
2022/10/23 02:31:59;;;;;;;4.43;2.63;;;16.20;99.90;;;;;;5055418;28;20169;-71
2022/10/23 02:34:25;;;;;;;7.37;2.10;;;16.30;99.90;;;;;;5055769;28;20165;-72
2022/10/23 02:36:50;;;;;;;5.20;2.47;;;16.30;99.90;;;;;;5055866;28;20191;-72
2022/10/23 02:39:16;;;;;;;3.13;2.20;;;16.30;99.90;;;;;;5055336;28;20240;-72
2022/10/23 02:41:58;;;;;;;7.67;4.00;;;16.30;99.90;;;;;;5055530;28;20681;-72
2022/10/23 02:44:39;;;;;;;4.37;3.17;;;16.30;99.90;;;;;;5055453;28;20172;-72
2022/10/23 02:47:30;;;;;;;4.07;2.50;;;16.40;99.90;;;;;;5055167;28;20172;-70
2022/10/23 02:49:56;;;;;;;4.67;2.00;;;16.30;99.90;;;;;;5055520;28;20173;-72
2022/10/23 02:52:32;;;;;;;2.83;2.23;;;16.30;99.90;;;;;;5055470;28;20180;-72
2022/10/23 02:55:21;;;;;;;3.47;2.60;;;16.30;99.90;;;;;;5055243;28;20205;-71
2022/10/23 02:57:55;;;;;;;7.97;2.80;;;16.30;99.90;;;;;;5055244;28;20225;-71
2022/10/23 03:00:23;;;;;;;4.00;2.13;;;16.40;99.90;;;;;;5054354;28;20230;-72
2022/10/23 03:02:54;;;;;;;5.93;2.47;;;16.40;99.90;;;;;;5054398;28;20704;-72
2022/10/23 03:05:25;;;;;;;3.13;2.50;;;16.40;99.90;;;;;;5055214;28;20252;-71
2022/10/23 03:07:51;;;;;;;3.73;2.20;;;16.40;99.90;;;;;;5055105;28;20238;-71
2022/10/23 03:10:17;;;;;;;6.23;2.67;;;16.50;99.90;;;;;;5054896;28;20272;-71
2022/10/23 03:12:43;;;;;;;6.97;2.33;;;16.50;99.90;;;;;;5054378;28;20649;-71
2022/10/23 03:15:11;;;;;;;5.50;2.33;;;16.60;99.90;;;;;;5054933;28;20173;-70
2022/10/23 03:17:36;;;;;;;3.43;2.00;;;16.60;99.90;;;;;;5054454;28;20181;-71
2022/10/23 03:20:04;;;;;;;5.63;1.97;;;16.50;99.90;;;;;;5054581;28;20679;-72
2022/10/23 03:22:29;;;;;;;6.73;2.60;;;16.50;99.90;;;;;;5054274;28;20220;-72
2022/10/23 03:24:55;;;;;;;4.67;2.57;;;16.50;99.90;;;;;;5054567;28;20235;-70
2022/10/23 03:27:21;;;;;;;4.97;2.13;;;16.50;99.90;;;;;;5054712;28;20668;-70
2022/10/23 03:29:46;;;;;;;4.27;2.73;;;16.50;99.90;;;;;;5054114;28;20655;-70
2022/10/23 03:32:12;;;;;;;3.00;2.40;;;16.50;99.90;;;;;;5054487;28;20232;-71
2022/10/23 03:34:37;;;;;;;2.73;2.13;;;16.40;99.90;;;;;;5054321;28;20571;-72
2022/10/23 03:37:03;;;;;;;2.67;2.23;;;16.40;99.90;;;;;;5054473;28;20192;-71
2022/10/23 03:39:29;;;;;;;3.70;2.37;;;16.30;99.90;;;;;;5054014;28;20181;-71
2022/10/23 03:41:54;;;;;;;2.80;2.20;;;16.30;99.90;;;;;;5053735;28;20213;-71
2022/10/23 03:44:20;;;;;;;2.87;2.17;;;16.30;99.90;;;;;;5053779;28;20203;-71
2022/10/23 03:46:46;;;;;;;5.30;2.77;;;16.30;99.90;;;;;;5054098;28;20211;-71
2022/10/23 03:49:11;;;;;;;5.03;2.87;;;16.30;99.90;;;;;;5054160;28;20180;-72
2022/10/23 03:51:40;;;;;;;4.53;2.23;;;16.20;99.90;;;;;;5054004;28;20177;-71
2022/10/23 03:54:06;;;;;;;2.67;2.43;;;16.20;99.90;;;;;;5053739;28;20176;-71
2022/10/23 03:56:32;;;;;;;5.07;2.40;;;16.10;99.90;;;;;;5054260;28;20181;-71
2022/10/23 03:58:58;;;;;;;4.00;2.60;;;16.10;99.90;;;;;;5053456;28;20165;-71
2022/10/23 04:01:23;;;;;;;4.80;2.30;;;16.10;99.90;;;;;;5053752;28;20224;-71
2022/10/23 04:03:49;;;;;;;4.77;2.60;;;16.10;99.90;;;;;;5053766;28;20205;-71
2022/10/23 04:06:14;;;;;;;4.33;2.50;;;16.10;99.90;;;;;;5053440;28;20226;-71
2022/10/23 04:08:42;;;;;;;5.23;2.40;;;16.10;99.90;;;;;;5053603;28;20169;-71
2022/10/23 04:11:08;;;;;;;2.80;2.50;;;16.10;99.90;;;;;;5053170;28;20527;-71
2022/10/23 04:13:34;;;;;;;5.20;2.67;;;16.10;99.90;;;;;;5053412;28;20275;-73
2022/10/23 04:15:59;;;;;;;5.53;2.10;;;16.10;99.90;;;;;;5053580;28;20256;-72
2022/10/23 04:18:25;;;;;;;4.60;2.50;;;16.10;99.90;;;;;;5053601;28;20173;-71
2022/10/23 04:20:53;;;;;;;6.23;2.57;;;16.10;99.90;;;;;;5053616;28;20553;-73
2022/10/23 04:23:19;;;;;;;3.43;2.57;;;16.10;99.90;;;;;;5053301;28;20655;-71
2022/10/23 04:25:45;;;;;;;2.70;2.50;;;16.10;99.90;;;;;;5053218;28;20189;-71
2022/10/23 04:28:10;;;;;;;5.90;2.50;;;16.10;99.90;;;;;;5053217;28;20173;-72
2022/10/23 04:30:36;;;;;;;3.43;2.60;;;16.10;99.90;;;;;;5053606;28;20714;-71
2022/10/23 04:33:01;;;;;;;4.63;2.50;;;16.20;99.90;;;;;;5053279;28;20177;-72
2022/10/23 04:35:27;;;;;;;4.33;2.43;;;16.20;99.90;;;;;;5053372;28;20253;-71
2022/10/23 04:37:53;;;;;;;3.93;2.67;;;16.20;99.90;;;;;;5053233;28;20652;-71
2022/10/23 04:40:18;;;;;;;3.50;2.60;;;16.20;99.90;;;;;;5052947;28;20181;-72
2022/10/23 04:42:44;;;;;;;6.13;2.90;;;16.10;99.90;;;;;;5052925;28;20224;-72
2022/10/23 04:45:10;;;;;;;3.47;2.50;;;16.20;99.90;;;;;;5034780;28;20177;-72
2022/10/23 04:47:35;;;;;;;3.97;2.67;;;16.20;99.90;;;;;;5053120;28;20593;-70
2022/10/23 04:50:01;;;;;;;6.53;2.70;;;16.20;99.90;;;;;;5052944;28;20239;-71
2022/10/23 04:52:26;;;;;;;3.77;2.60;;;16.20;99.90;;;;;;5052590;28;20191;-71
2022/10/23 04:54:52;;;;;;;3.00;2.70;;;16.30;99.90;;;;;;5052796;28;20272;-70
2022/10/23 04:57:18;;;;;;;4.50;2.90;;;16.20;99.90;;;;;;5052588;28;20161;-71
2022/10/23 04:59:43;;;;;;;3.10;2.80;;;16.30;99.90;;;;;;5052711;28;20291;-70
2022/10/23 05:02:09;;;;;;;5.03;2.70;;;16.30;99.90;;;;;;5052509;28;20320;-71
2022/10/23 05:04:35;;;;;;;5.20;2.80;;;16.30;99.90;;;;;;5053025;28;20192;-71
2022/10/23 05:07:00;;;;;;;5.03;2.60;;;16.30;99.90;;;;;;5052869;28;20177;-72
2022/10/23 05:09:26;;;;;;;5.10;3.17;;;16.40;99.90;;;;;;5053006;28;20173;-72
2022/10/23 05:11:51;;;;;;;3.10;2.83;;;16.40;99.90;;;;;;5052007;28;20228;-71
2022/10/23 05:14:17;;;;;;;5.77;2.90;;;16.40;99.90;;;;;;5052656;28;20239;-71
2022/10/23 05:16:51;;;;;;;3.33;2.80;;;16.40;99.90;;;;;;5052398;28;20181;-71
2022/10/23 05:19:35;;;;;;;6.07;3.10;;;16.50;99.90;;;;;;5052625;28;20172;-72
2022/10/23 05:22:03;;;;;;;4.20;2.73;;;16.40;99.90;;;;;;5053426;28;20336;-71
2022/10/23 05:24:28;;;;;;;3.73;2.73;;;16.50;99.90;;;;;;5056453;28;20193;-70
2022/10/23 05:26:55;;;;;;;5.93;2.90;;;16.40;99.90;;;;;;5056297;28;20602;-72
2022/10/23 05:29:21;;;;;;;5.17;3.30;;;16.50;99.90;;;;;;5056634;28;20626;-71
2022/10/23 05:31:50;;;;;;;6.73;3.27;;;16.50;99.90;;;;;;5056557;28;20227;-72
2022/10/23 05:34:19;;;;;;;4.70;2.80;;;16.50;99.90;;;;;;5056364;28;20173;-70
2022/10/23 05:36:45;;;;;;;2.87;2.73;;;16.60;99.90;;;;;;5056691;28;20179;-71
2022/10/23 05:39:11;;;;;;;4.90;3.07;;;16.60;99.90;;;;;;5056337;28;20184;-71
2022/10/23 05:41:55;;;;;;;6.00;2.70;;;16.60;99.90;;;;;;5056098;28;20212;-72
2022/10/23 05:44:20;;;;;;;5.83;2.80;;;16.60;99.90;;;;;;5055872;28;20197;-72
2022/10/23 05:46:46;;;;;;;3.27;2.90;;;16.60;99.90;;;;;;5056049;28;20209;-71
2022/10/23 05:49:12;;;;;;;7.90;3.07;;;16.60;99.90;;;;;;5056307;28;20515;-72
2022/10/23 05:51:39;;;;;;;6.53;3.10;;;16.60;99.90;;;;;;5056378;28;20174;-70
2022/10/23 05:54:07;;;;;;;3.07;2.70;;;16.60;99.90;;;;;;5055934;28;20169;-71
2022/10/23 05:56:36;;;;;;;3.33;2.90;;;16.60;99.90;;;;;;5055813;28;20204;-71
2022/10/23 05:59:02;;;;;;;5.90;2.90;;;16.60;99.90;;;;;;5055581;28;20179;-71
2022/10/23 06:01:28;;;;;;;5.83;2.83;;;16.50;99.90;;;;;;5055864;28;20319;-71
2022/10/23 06:03:54;;;;;;;5.97;2.90;;;16.50;99.90;;;;;;5055863;28;20188;-71
2022/10/23 06:06:19;;;;;;;5.67;2.70;;;16.50;99.90;;;;;;5056088;28;20613;-71
2022/10/23 06:08:45;;;;;;;4.80;3.10;;;16.40;99.90;;;;;;5056067;28;20223;-71
2022/10/23 06:11:13;;;;;;;3.27;2.90;;;16.40;99.90;;;;;;5037387;28;20629;-72
2022/10/23 06:13:42;;;;;;;4.13;3.37;;;16.40;99.90;;;;;;5055266;28;20180;-72
2022/10/23 06:16:15;;;;;;;3.97;2.90;;;16.30;99.90;;;;;;5055972;28;20165;-72
2022/10/23 06:18:41;;;;;;;5.87;3.30;;;16.30;99.90;;;;;;5055897;28;20173;-71
2022/10/23 06:21:08;;;;;;;4.13;2.90;;;16.40;99.90;;;;;;5055589;28;20201;-71
2022/10/23 06:23:35;;;;;;;3.97;2.63;;;16.40;99.90;;;;;;5055723;28;20227;-71
2022/10/23 06:26:01;;;;;;;6.13;3.17;;;16.40;99.90;;;;;;5055211;28;20640;-72
2022/10/23 06:28:27;;;;;;;5.23;2.80;;;16.40;99.90;;;;;;5055492;28;20303;-71
2022/10/23 06:30:53;;;;;;;3.20;2.57;;;16.30;99.90;;;;;;5055268;28;20264;-72
2022/10/23 06:33:19;;;;;;;2.93;2.40;;;16.40;99.90;;;;;;5055199;28;20637;-71
2022/10/23 06:35:44;;;;;;;6.00;2.90;;;16.30;99.90;;;;;;5055312;28;20181;-71
2022/10/23 06:38:10;;;;;;;4.87;2.90;;;16.40;99.90;;;;;;5055262;28;20582;-72
2022/10/23 06:40:36;;;;;;;3.43;3.00;;;16.40;99.90;;;;;;5054283;28;20227;-71
2022/10/23 06:43:05;;;;;;;6.03;3.03;;;16.40;99.90;;;;;;5054963;28;20177;-71
2022/10/23 06:45:35;;;;;;;3.10;2.40;;;16.40;99.90;;;;;;5037267;28;20196;-71
2022/10/23 06:48:00;;;;;;;3.20;2.90;;;16.50;99.90;;;;;;5055445;28;20260;-71
2022/10/23 06:50:29;;;;;;;4.37;2.50;;;16.50;99.90;;;;;;5054767;28;20533;-72
2022/10/23 06:52:55;;;;;;;5.90;2.70;;;16.50;99.90;;;;;;5054711;28;20209;-72
2022/10/23 06:55:21;;;;;;;2.60;2.37;;;16.50;99.90;;;;;;5054623;28;20216;-72
2022/10/23 06:57:47;;;;;;;7.20;3.07;;;16.50;99.90;;;;;;5054848;28;20484;-72
2022/10/23 07:00:13;;;;;;;6.23;2.50;;;16.60;99.90;;;;;;5054666;28;20227;-72
2022/10/23 07:02:38;;;;;;;3.70;2.47;;;16.60;99.90;;;;;;5054301;28;20228;-72
2022/10/23 07:05:04;;;;;;;2.73;2.53;;;16.70;99.90;;;;;;5054986;28;20211;-72
2022/10/23 07:07:30;;;;;;;3.17;2.30;;;16.80;99.90;;;;;;5054537;28;20181;-72
2022/10/23 07:09:56;;;;;;;3.90;2.40;;;16.80;99.90;;;;;;5054416;28;20192;-71
2022/10/23 07:12:21;;;;;;;3.87;2.53;;;16.80;99.90;;;;;;5054473;28;20173;-71
2022/10/23 07:14:47;;;;;;;7.53;2.90;;;16.90;99.90;;;;;;5054101;28;20170;-71
2022/10/23 07:17:13;;;;;;;4.33;2.50;;;16.80;99.90;;;;;;5054722;28;20182;-71
2022/10/23 07:19:38;;;;;;;5.70;2.80;;;16.90;99.90;;;;;;5054814;28;20244;-72
2022/10/23 07:22:04;;;;;;;3.67;3.10;;;16.90;99.90;;;;;;5053959;28;20231;-71
2022/10/23 07:24:40;;;;;;;5.30;2.90;;;17.00;99.90;;;;;;5054033;28;20193;-72
2022/10/23 07:27:06;;;;;;;5.80;2.80;;;17.10;99.90;;;;;;5054568;28;20173;-71
2022/10/23 07:29:32;;;;;;;4.10;3.40;;;17.20;99.90;;;;;;5053749;28;20260;-71
2022/10/23 07:31:59;;;;;;;4.30;3.20;;;17.30;99.90;;;;;;5054301;28;20208;-72
2022/10/23 07:34:25;;;;;;;4.07;3.20;;;17.40;99.90;;;;;;5054257;28;20173;-71
2022/10/23 07:36:53;;;;;;;6.80;3.20;;;17.40;99.90;;;;;;5053732;28;20201;-71
2022/10/23 07:39:19;;;;;;;3.90;3.00;;;17.40;99.90;;;;;;5054018;28;20165;-71
2022/10/23 07:41:45;;;;;;;3.00;2.80;;;17.40;99.90;;;;;;5053768;28;20754;-71
2022/10/23 07:44:10;;;;;;;3.83;2.20;;;17.40;99.90;;;;;;5053363;28;20166;-71
2022/10/23 07:46:36;;;;;;;3.77;2.50;;;17.40;99.90;;;;;;5053624;28;20235;-73
2022/10/23 07:49:01;;;;;;;8.37;2.60;;;17.40;99.90;;;;;;5053744;28;20169;-71
2022/10/23 07:51:27;;;;;;;19.20;4.30;;;17.30;99.90;;;;;;5053355;28;20201;-71
2022/10/23 07:53:53;;;;;;;8.53;3.77;;;17.30;99.90;;;;;;5053858;28;20177;-71
2022/10/23 07:56:23;;;;;;;6.97;2.70;;;17.30;99.90;;;;;;5053182;28;20173;-71
2022/10/23 07:58:52;;;;;;;4.70;3.00;;;17.40;99.90;;;;;;5053723;28;20164;-71
2022/10/23 08:01:26;;;;;;;5.60;2.33;;;17.40;99.90;;;;;;5053300;28;20716;-72
2022/10/23 08:03:52;;;;;;;4.07;2.37;;;17.50;99.90;;;;;;5053414;28;20181;-71
2022/10/23 08:06:17;;;;;;;3.47;2.57;;;17.50;99.90;;;;;;5053100;28;20229;-71
2022/10/23 08:08:43;;;;;;;2.40;2.20;;;17.60;99.90;;;;;;5053024;28;20513;-72
2022/10/23 08:11:12;;;;;;;3.30;2.20;;;17.60;99.90;;;;;;5053096;28;20525;-72
2022/10/23 08:13:38;;;;;;;3.90;2.40;;;17.60;99.90;;;;;;5053465;28;20622;-71
2022/10/23 08:16:04;;;;;;;3.50;2.50;;;17.60;99.90;;;;;;5053358;28;20180;-71
2022/10/23 08:18:30;;;;;;;5.17;2.60;;;17.60;99.90;;;;;;5052821;28;20264;-70
2022/10/23 08:21:00;;;;;;;2.70;2.40;;;17.60;99.90;;;;;;5052708;28;20184;-71
2022/10/23 08:23:26;;;;;;;6.80;2.97;;;17.50;99.90;;;;;;5052905;28;20181;-70
2022/10/23 08:26:00;;;;;;;3.00;2.30;;;17.60;99.90;;;;;;5052968;28;20250;-71
2022/10/23 08:28:26;;;;;;;5.07;2.90;;;17.60;99.90;;;;;;5053298;28;20170;-71
2022/10/23 08:30:53;;;;;;;8.70;3.17;;;17.50;99.90;;;;;;5053378;28;20169;-71
2022/10/23 08:33:19;;;;;;;5.23;3.97;;;17.50;99.90;;;;;;5052740;28;20197;-71
2022/10/23 08:35:45;;;;;;;8.00;4.55;;;17.50;99.90;;;;;;5052614;28;20617;-71
2022/10/23 08:38:11;;;;;;;6.40;3.80;;;17.60;99.90;;;;;;5053221;28;20189;-71
2022/10/23 08:40:37;;;;;;;3.90;3.37;;;17.50;99.90;;;;;;5051793;28;20188;-73
2022/10/23 08:43:14;;;;;;;5.43;2.90;;;17.50;99.90;;;;;;5052873;28;20224;-71
2022/10/23 08:45:56;;;;;;;2.73;2.53;;;17.50;99.90;;;;;;5052940;28;20200;-72
2022/10/23 08:48:36;;;;;;;3.93;2.50;;;17.50;99.90;;;;;;5052698;28;20652;-71
2022/10/23 08:51:16;;;;;;;5.00;2.77;;;17.50;99.90;;;;;;5052071;28;20169;-71
2022/10/23 08:53:53;;;;;;;4.57;2.67;;;17.40;99.90;;;;;;5052533;28;20181;-71
2022/10/23 08:56:31;;;;;;;5.70;2.80;;;17.40;99.90;;;;;;5052674;28;20185;-71
2022/10/23 08:59:00;;;;;;;7.93;3.27;;;17.50;99.90;;;;;;5052764;28;20184;-70
2022/10/23 09:01:40;;;;;;;7.37;3.17;;;17.50;99.90;;;;;;5052438;28;20225;-72
2022/10/23 09:04:11;;;;;;;5.10;2.80;;;17.60;99.90;;;;;;5052491;28;20169;-71
2022/10/23 09:06:54;;;;;;;5.35;3.15;;;17.60;99.90;;;;;;5052877;28;20170;-71
2022/10/23 09:09:47;;;;;;;6.37;3.10;;;17.70;99.90;;;;;;5052076;28;20260;-71
2022/10/23 09:12:21;;;;;;;2.80;2.60;;;17.90;99.90;;;;;;5052160;28;20173;-72
2022/10/23 09:15:15;;;;;;;5.82;3.05;;;18.00;99.90;;;;;;5052548;28;20169;-72
2022/10/23 09:17:44;;;;;;;10.02;3.58;;;18.10;99.90;;;;;;5052297;28;20259;-71
2022/10/23 09:20:21;;;;;;;9.23;2.90;;;18.10;99.90;;;;;;5051919;28;20629;-72
2022/10/23 09:22:57;;;;;;;5.07;2.70;;;18.00;99.90;;;;;;5052623;28;20266;-71
2022/10/23 09:25:29;;;;;;;5.53;3.13;;;18.10;99.90;;;;;;5052476;28;20193;-70
2022/10/23 09:28:00;;;;;;;4.10;3.38;;;18.30;99.90;;;;;;5052869;28;20177;-71
2022/10/23 09:30:35;;;;;;;4.75;3.25;;;18.30;99.90;;;;;;5052509;28;20625;-71
2022/10/23 09:33:16;;;;;;;6.05;3.75;;;18.40;99.90;;;;;;5052336;28;20165;-71
2022/10/23 09:36:13;;;;;;;6.88;3.67;;;18.40;99.90;;;;;;5052623;28;20233;-71
2022/10/23 09:38:49;;;;;;;6.80;3.00;;;18.70;99.90;;;;;;5035898;28;20191;-73
2022/10/23 09:41:33;;;;;;;4.82;3.05;;;18.80;99.90;;;;;;5051863;28;20197;-72
2022/10/23 09:44:06;;;;;;;4.35;2.83;;;18.80;99.90;;;;;;5052325;28;20177;-72
2022/10/23 09:46:44;;;;;;;4.20;3.40;;;18.80;99.90;;;;;;5052135;28;20177;-71
2022/10/23 09:49:28;;;;;;;7.95;2.85;;;18.80;99.90;;;;;;5052377;28;20169;-72
2022/10/23 09:52:08;;;;;;;3.65;3.08;;;18.80;99.90;;;;;;5051543;28;20292;-71
2022/10/23 09:54:50;;;;;;;4.97;3.20;;;18.80;99.90;;;;;;5051730;28;20211;-72
2022/10/23 09:57:42;;;;;;;7.07;3.60;;;18.90;99.90;;;;;;5051967;28;20212;-71
2022/10/23 10:00:14;;;;;;;4.53;3.33;;;19.10;99.90;;;;;;5051614;28;20176;-72
2022/10/23 10:02:42;;;;;;;3.17;2.90;;;19.30;99.90;;;;;;5051560;28;20232;-72
2022/10/23 10:05:32;;;;;;;7.43;3.28;;;19.20;99.90;;;;;;5050789;28;20639;-72
2022/10/23 10:08:07;;;;;;;5.60;3.10;;;19.10;99.90;;;;;;5052081;28;20200;-72
2022/10/23 10:10:46;;;;;;;6.35;3.55;;;18.80;99.90;;;;;;5054510;28;20176;-71
2022/10/23 10:13:32;;;;;;;5.30;3.28;;;18.70;99.90;;;;;;5055239;28;20234;-71
2022/10/23 10:16:03;;;;;;;2.92;2.65;;;18.80;99.90;;;;;;5041071;28;20181;-72
2022/10/23 10:18:31;;;;;;;3.95;2.90;;;19.00;99.90;;;;;;5055314;28;20173;-72
2022/10/23 10:21:32;;;;;;;4.22;3.20;;;19.10;99.90;;;;;;5054619;28;20173;-72
2022/10/23 10:24:38;;;;;;;5.80;3.15;;;19.30;99.90;;;;;;5054951;28;20192;-71
2022/10/23 10:27:17;;;;;;;4.30;3.13;;;19.30;99.90;;;;;;4990599;28;20185;-71
2022/10/23 10:30:04;;;;;;;4.20;2.97;;;19.20;99.90;;;;;;5054224;28;20245;-71
2022/10/23 10:32:49;;;;;;;3.70;2.80;;;19.30;99.90;;;;;;5054806;28;20625;-71
2022/10/23 10:35:36;;;;;;;6.88;3.20;;;19.30;99.90;;;;;;5055025;28;20173;-71
2022/10/23 10:38:13;;;;;;;5.95;2.72;;;19.30;99.90;;;;;;5054154;28;20177;-71
2022/10/23 10:40:57;;;;;;;6.28;3.20;;;19.40;99.90;;;;;;5054618;28;20172;-72
2022/10/23 10:43:41;;;;;;;4.63;3.00;;;19.30;99.90;;;;;;5054565;28;20242;-71
2022/10/23 10:46:13;;;;;;;5.45;2.80;;;19.40;99.90;;;;;;5053966;28;20168;-72
2022/10/23 10:48:59;;;;;;;6.10;2.70;;;19.30;99.90;;;;;;5053566;28;20181;-72
2022/10/23 10:52:00;;;;;;;5.47;3.00;;;19.30;99.90;;;;;;5054280;28;20165;-71
2022/10/23 10:54:40;;;;;;;4.45;2.60;;;19.50;99.90;;;;;;5053816;28;20271;-71
2022/10/23 10:57:23;;;;;;;4.75;3.28;;;19.60;99.90;;;;;;5053526;28;20252;-71
2022/10/23 10:59:53;;;;;;;7.40;3.20;;;19.70;99.90;;;;;;5053634;28;20173;-71
2022/10/23 11:02:51;;;;;;;4.35;3.03;;;19.90;99.90;;;;;;5054051;28;20744;-72
2022/10/23 11:05:38;;;;;;;5.82;2.90;;;20.00;99.90;;;;;;5035973;28;20205;-72
2022/10/23 11:08:21;;;;;;;5.38;2.63;;;20.10;99.90;;;;;;5053685;28;20177;-72
2022/10/23 11:10:52;;;;;;;4.40;3.20;;;20.10;99.90;;;;;;5054240;28;20272;-73
2022/10/23 11:13:33;;;;;;;4.63;3.25;;;20.10;99.90;;;;;;5054347;28;20166;-73
2022/10/23 11:16:07;;;;;;;8.23;3.42;;;20.10;99.90;;;;;;5054209;28;20176;-72
2022/10/23 11:18:35;;;;;;;5.35;3.08;;;20.30;99.90;;;;;;5054046;28;20180;-71
2022/10/23 11:21:16;;;;;;;4.88;3.13;;;20.40;99.90;;;;;;5053230;28;20255;-71
2022/10/23 11:24:10;;;;;;;4.28;3.30;;;20.50;99.90;;;;;;5054618;28;20203;-72
2022/10/23 11:26:51;;;;;;;4.63;2.80;;;20.70;99.90;;;;;;5053553;28;20169;-71
2022/10/23 11:29:34;;;;;;;6.50;2.88;;;20.80;99.90;;;;;;5053044;28;20173;-74
2022/10/23 11:32:16;;;;;;;6.10;3.13;;;20.70;99.90;;;;;;5054336;28;20177;-72
2022/10/23 11:34:44;;;;;;;9.63;4.28;;;20.90;99.90;;;;;;5053534;28;20180;-71
2022/10/23 11:37:16;;;;;;;3.38;3.08;;;21.00;99.90;;;;;;5053704;28;20170;-71
2022/10/23 11:39:53;;;;;;;4.05;3.22;;;21.00;99.90;;;;;;5053839;28;20198;-72
2022/10/23 11:42:39;;;;;;;4.85;3.10;;;21.10;99.90;;;;;;5053150;28;20204;-71
2022/10/23 11:45:34;;;;;;;5.60;3.83;;;21.20;99.90;;;;;;5039745;28;20185;-71
2022/10/23 11:48:34;;;;;;;6.63;3.03;;;21.10;99.90;;;;;;5053120;28;20169;-72
2022/10/23 11:51:01;;;;;;;5.18;2.60;;;21.10;99.90;;;;;;5052978;28;20174;-71
2022/10/23 11:53:38;;;;;;;5.72;2.88;;;21.00;99.90;;;;;;5053400;28;20169;-71
2022/10/23 11:56:13;;;;;;;4.63;2.90;;;21.10;99.90;;;;;;5052988;28;20181;-71
2022/10/23 11:58:47;;;;;;;8.20;2.70;;;21.10;99.90;;;;;;5052813;28;20176;-72
2022/10/23 12:01:27;;;;;;;4.15;2.80;;;21.10;99.90;;;;;;5052939;28;20217;-71
2022/10/23 12:04:14;;;;;;;4.95;3.05;;;21.30;99.90;;;;;;5052991;28;20534;-72
2022/10/23 12:06:52;;;;;;;6.18;3.03;;;21.40;99.90;;;;;;5053054;28;20268;-71
2022/10/23 12:09:30;;;;;;;4.53;2.80;;;21.60;99.90;;;;;;5052856;28;20186;-72
2022/10/23 12:12:11;;;;;;;4.68;3.30;;;21.60;99.90;;;;;;5052546;28;20255;-72
2022/10/23 12:14:51;;;;;;;5.20;3.20;;;21.60;99.90;;;;;;5052887;28;20213;-71
2022/10/23 12:17:34;;;;;;;6.40;2.67;;;21.70;99.90;;;;;;5053190;28;20173;-71
2022/10/23 12:20:09;;;;;;;3.90;2.88;;;21.50;99.90;;;;;;5052712;28;20183;-72
2022/10/23 12:22:54;;;;;;;8.05;3.25;;;21.50;99.90;;;;;;5053073;28;20212;-72
2022/10/23 12:25:28;;;;;;;2.85;2.50;;;21.40;99.90;;;;;;5053071;28;20188;-72
2022/10/23 12:28:29;;;;;;;7.53;2.70;;;21.60;99.90;;;;;;5052354;28;20206;-71
2022/10/23 12:31:29;;;;;;;3.95;2.97;;;21.60;99.90;;;;;;5051430;28;20283;-71
2022/10/23 12:34:03;;;;;;;3.00;2.70;;;21.60;99.90;;;;;;5052812;28;20177;-71
2022/10/23 12:37:07;;;;;;;8.25;3.30;;;21.60;99.90;;;;;;5052692;28;20176;-71
2022/10/23 12:39:37;;;;;;;7.95;3.22;;;21.50;99.90;;;;;;4970958;28;20632;-72
2022/10/23 12:42:21;;;;;;;3.22;2.88;;;21.60;99.90;;;;;;4972004;28;20230;-72
2022/10/23 12:45:23;;;;;;;3.88;2.60;;;21.80;99.90;;;;;;4971676;28;20175;-71
2022/10/23 12:47:50;;;;;;;5.20;2.95;;;22.00;99.90;;;;;;4969569;28;20209;-71
2022/10/23 12:50:18;;;;;;;5.03;3.40;;;21.90;99.90;;;;;;4971949;28;20172;-71
2022/10/23 12:52:57;;;;;;;6.65;3.17;;;21.90;99.90;;;;;;4971175;28;20191;-72
2022/10/23 12:55:24;;;;;;;4.80;2.80;;;21.90;99.90;;;;;;4971392;28;20207;-71
2022/10/23 12:57:51;;;;;;;5.40;2.72;;;22.10;99.90;;;;;;4970602;28;20578;-71
2022/10/23 13:00:19;;;;;;;9.57;3.13;;;22.20;99.90;;;;;;4971951;28;20627;-72
2022/10/23 13:02:46;;;;;;;3.50;2.63;;;22.30;99.90;;;;;;4971065;28;20286;-71
2022/10/23 13:05:18;;;;;;;5.43;2.58;;;22.20;99.90;;;;;;4971521;28;20178;-71
2022/10/23 13:07:46;;;;;;;5.28;2.70;;;22.10;99.90;;;;;;4970645;28;20266;-73
2022/10/23 13:10:14;;;;;;;7.40;3.17;;;22.00;99.90;;;;;;4970867;28;20176;-70
2022/10/23 13:12:46;;;;;;;6.60;2.63;;;22.00;99.90;;;;;;4983279;28;20184;-71